Terminal Aerodrome Forecast
Issued by NWS

Home | Current Version | Previous Version | Text Only | Print | Product List | Glossary On
Versions: 1 2 3 4 5 6 7 8 9 10 11 12 13 14 15 16 17
000
FTAK31 PAJN 041140
TAFASI
TAF
PASI 041140Z 0412/0512 10009KT P6SM VCSH SCT025 OVC050
      TEMPO 0412/0416 -SHRA BKN025 OVC050
     FM041600 17006KT P6SM -SHRA SCT025 OVC040
     FM042000 19006KT P6SM VCSH BKN040 OVC060
     FM042300 21009KT P6SM SCT030 OVC040
     FM050500 14010KT P6SM -RA SCT025 OVC040
     FM050900 14012KT P6SM -RA BKN025 OVC040=

USA.gov is the U.S. government's official web portal to all federal, state and local government web resources and services.